Time;durP1;ratioP1;P1;durP2;ratioP2;P2;SDS_P1;SDS_P2;PMS_P1;PMS_P2;Temp;Humidity;BMP_temperature;BMP_pressure;BME280_temperature;BME280_humidity;BME280_pressure;Samples;Min_cycle;Max_cycle;Signal;HPM_P1;HPM_P2
2023/03/10 00:01:19;;;;;;;3.25;2.03;;;;;;;12.97;67.44;99949.91;4910674;29;20043;-86
2023/03/10 00:03:44;;;;;;;5.67;3.73;;;;;;;12.96;67.73;99948.25;4926246;29;20039;-85
2023/03/10 00:06:18;;;;;;;4.97;3.15;;;;;;;12.95;67.84;99946.59;4899478;29;20527;-85
2023/03/10 00:08:46;;;;;;;7.45;4.43;;;;;;;12.96;67.67;99959.03;4895008;29;20107;-86
2023/03/10 00:11:11;;;;;;;11.15;6.93;;;;;;;12.88;67.82;99936.56;4916316;29;20165;-84
2023/03/10 00:13:37;;;;;;;6.97;4.85;;;;;;;12.74;68.17;99937.47;4939142;29;20035;-84
2023/03/10 00:16:03;;;;;;;;;;;;;;;12.77;69.01;99961.34;4936353;29;20042;-85
2023/03/10 00:18:31;;;;;;;6.78;2.10;;;;;;;12.76;69.56;99969.63;4934620;29;19914;-85
2023/03/10 00:20:57;;;;;;;3.53;1.70;;;;;;;12.77;69.44;99955.97;4942404;29;20063;-85
2023/03/10 00:23:24;;;;;;;2.90;1.50;;;;;;;12.70;69.06;99933.47;4935175;29;20058;-87
2023/03/10 00:26:02;;;;;;;3.83;1.77;;;;;;;12.86;69.43;99959.38;4917319;29;20085;-86
2023/03/10 00:28:28;;;;;;;2.47;1.50;;;;;;;12.73;69.72;99940.34;4947803;28;20134;-88
2023/03/10 00:31:10;;;;;;;2.88;1.63;;;;;;;12.71;69.86;99939.72;4936871;29;20062;-89
2023/03/10 00:33:38;;;;;;;2.83;1.77;;;;;;;12.74;69.78;99942.88;4925521;29;20055;-88
2023/03/10 00:36:26;;;;;;;2.45;1.60;;;;;;;12.81;70.00;99941.06;4935259;29;20135;-91
2023/03/10 00:38:53;;;;;;;2.70;1.73;;;;;;;12.57;70.31;99925.25;4954540;28;20150;-91
2023/03/10 00:41:24;;;;;;;2.67;1.80;;;;;;;12.77;70.65;99945.16;4930242;29;20051;-87
2023/03/10 00:43:50;;;;;;;4.47;1.60;;;;;;;12.72;70.68;99941.41;4925614;29;20054;-87
2023/03/10 00:46:16;;;;;;;3.25;1.80;;;;;;;12.49;71.31;99917.31;4915519;29;20039;-87
2023/03/10 00:48:41;;;;;;;3.88;1.65;;;;;;;12.60;71.87;99954.56;4949466;28;20392;-87
2023/03/10 00:51:07;;;;;;;2.50;1.80;;;;;;;12.62;71.76;99957.91;4913192;29;20055;-88
2023/03/10 00:53:38;;;;;;;3.42;2.10;;;;;;;12.57;72.23;99963.00;4918419;29;20126;-88
2023/03/10 00:56:43;;;;;;;2.75;1.50;;;;;;;12.38;72.79;99949.09;4916723;29;20043;-88
2023/03/10 00:59:11;;;;;;;5.05;1.80;;;;;;;12.52;72.84;99962.75;4937051;29;20114;-87
2023/03/10 01:01:38;;;;;;;2.50;1.60;;;;;;;12.52;72.92;99962.75;4922542;29;20106;-88
2023/03/10 01:04:25;;;;;;;6.70;1.77;;;;;;;12.37;73.15;99938.53;4904150;29;20035;-88
2023/03/10 01:06:50;;;;;;;4.07;1.75;;;;;;;12.38;73.48;99953.66;4923912;29;20097;-87
2023/03/10 01:09:17;;;;;;;3.83;2.00;;;;;;;12.27;73.26;99941.53;4896417;29;20047;-89
2023/03/10 01:11:43;;;;;;;3.67;2.00;;;;;;;12.26;73.66;99942.53;4931962;29;20089;-89
2023/03/10 01:14:15;;;;;;;4.15;2.38;;;;;;;12.40;73.44;99951.63;4919388;29;20039;-90
2023/03/10 01:16:40;;;;;;;6.15;2.90;;;;;;;12.22;73.38;99952.03;4929735;29;20043;-88
2023/03/10 01:19:07;;;;;;;5.38;2.90;;;;;;;12.28;73.57;99953.97;4925794;29;20114;-86
2023/03/10 01:21:34;;;;;;;6.80;4.20;;;;;;;12.42;73.28;99963.88;4908636;29;20038;-87
2023/03/10 01:24:00;;;;;;;7.78;3.20;;;;;;;12.43;73.05;99965.56;4916987;29;20062;-88
2023/03/10 01:26:29;;;;;;;7.63;3.28;;;;;;;12.49;72.77;99955.88;4932401;29;20501;-89
2023/03/10 01:28:54;;;;;;;5.60;3.20;;;;;;;12.40;72.94;99944.38;4937405;29;20078;-89
2023/03/10 01:31:20;;;;;;;6.55;3.17;;;;;;;12.28;72.89;99937.81;4921684;29;20044;-88
2023/03/10 01:33:47;;;;;;;5.47;2.85;;;;;;;12.42;73.12;99968.44;4934904;29;20050;-88
2023/03/10 01:36:16;;;;;;;5.13;2.95;;;;;;;12.38;73.39;99959.88;4916316;29;20118;-89
2023/03/10 01:38:42;;;;;;;7.85;3.38;;;;;;;12.06;73.64;99919.91;4923196;29;20138;-88
2023/03/10 01:41:08;;;;;;;4.22;2.85;;;;;;;12.14;73.63;99930.59;4908126;29;20500;-89
2023/03/10 01:43:41;;;;;;;7.32;3.22;;;;;;;12.22;73.69;99957.41;4916254;29;20449;-88
2023/03/10 01:46:38;;;;;;;4.32;2.72;;;;;;;12.20;73.89;99962.19;4940664;28;20438;-89
2023/03/10 01:49:12;;;;;;;4.32;2.63;;;;;;;12.12;73.86;99951.50;4934223;28;20059;-88
2023/03/10 01:51:41;;;;;;;4.72;2.67;;;;;;;11.97;74.17;99944.28;4926302;29;20061;-88
2023/03/10 01:54:10;;;;;;;4.68;2.88;;;;;;;12.06;74.45;99979.19;4893798;29;20520;-88
2023/03/10 01:56:36;;;;;;;4.57;2.60;;;;;;;11.92;74.70;99951.25;4917716;29;20086;-88
2023/03/10 01:59:03;;;;;;;4.85;3.13;;;;;;;11.91;74.47;99950.41;4909219;29;20473;-89
2023/03/10 02:01:29;;;;;;;4.70;2.55;;;;;;;11.82;74.93;99954.16;4930696;29;20130;-87
2023/03/10 02:04:08;;;;;;;4.20;2.90;;;;;;;11.90;75.21;99981.06;4893613;29;20444;-88
2023/03/10 02:06:40;;;;;;;4.90;2.80;;;;;;;11.98;75.41;99993.59;4945576;29;20065;-86
2023/03/10 02:09:06;;;;;;;4.40;3.00;;;;;;;11.97;75.37;99995.47;4933979;29;20043;-88
2023/03/10 02:11:34;;;;;;;4.80;2.85;;;;;;;11.87;75.64;99994.91;4920387;29;20043;-88
2023/03/10 02:14:02;;;;;;;4.35;2.75;;;;;;;11.93;75.82;100004.91;4944341;28;20144;-87
2023/03/10 02:16:28;;;;;;;6.05;3.28;;;;;;;11.62;76.55;100000.50;4933434;29;20039;-88
2023/03/10 02:18:54;;;;;;;5.15;3.05;;;;;;;11.65;75.97;99972.38;4912545;29;20465;-88
2023/03/10 02:21:44;;;;;;;6.55;2.97;;;;;;;11.81;75.87;100009.06;4934826;29;20555;-86
2023/03/10 02:24:18;;;;;;;4.45;2.90;;;;;;;11.80;76.27;100029.78;4916812;29;20039;-88
2023/03/10 02:26:59;;;;;;;6.05;3.10;;;;;;;11.81;76.28;100027.94;4893865;29;20117;-88
2023/03/10 02:29:40;;;;;;;5.03;2.90;;;;;;;11.73;76.56;100020.78;4945647;29;20505;-88
2023/03/10 02:32:07;;;;;;;6.75;3.40;;;;;;;11.74;76.50;100029.69;4943869;29;20117;-89
2023/03/10 02:34:34;;;;;;;5.53;2.88;;;;;;;11.57;77.22;100032.53;4937047;29;20035;-89
2023/03/10 02:37:00;;;;;;;5.00;2.90;;;;;;;11.41;77.31;100005.78;4903465;28;20147;-89
2023/03/10 02:39:25;;;;;;;;;;;;;;;11.54;77.36;100030.22;4924553;29;20512;-88
2023/03/10 02:41:51;;;;;;;3.75;2.80;;;;;;;11.49;77.35;100015.63;4940030;28;19950;-88
2023/03/10 02:44:20;;;;;;;5.97;2.83;;;;;;;11.45;77.17;100012.47;4919822;29;20107;-89
2023/03/10 02:46:46;;;;;;;6.63;3.08;;;;;;;11.21;77.81;99994.66;4915478;29;20145;-89
2023/03/10 02:49:13;;;;;;;7.60;2.90;;;;;;;11.39;77.67;100021.25;4922229;29;20643;-89
2023/03/10 02:51:44;;;;;;;6.90;2.80;;;;;;;11.40;77.82;100022.91;4924505;29;20158;-87
2023/03/10 02:54:10;;;;;;;6.25;2.95;;;;;;;11.27;78.12;100003.88;4917442;29;20752;-90
2023/03/10 02:56:41;;;;;;;5.22;2.78;;;;;;;11.32;78.48;100015.75;4912541;29;20436;-88
2023/03/10 02:59:09;;;;;;;5.50;2.92;;;;;;;11.22;78.83;100014.34;4916133;28;20036;-88
2023/03/10 03:01:36;;;;;;;6.93;3.25;;;;;;;11.19;78.96;100010.16;4908473;29;20055;-89
2023/03/10 03:04:02;;;;;;;6.90;3.45;;;;;;;11.09;79.19;100002.31;4906087;29;20496;-89
2023/03/10 03:06:28;;;;;;;5.68;3.20;;;;;;;11.23;79.33;100037.53;4922784;29;20142;-92
2023/03/10 03:08:54;;;;;;;5.80;3.20;;;;;;;11.18;79.41;100033.53;4933812;29;20058;-90
2023/03/10 03:11:20;;;;;;;6.50;3.47;;;;;;;11.08;79.68;100024.88;4891520;29;20055;-88
2023/03/10 03:13:45;;;;;;;4.63;3.13;;;;;;;10.99;79.49;100005.25;4927665;29;20067;-87
2023/03/10 03:16:12;;;;;;;5.60;3.28;;;;;;;11.17;79.44;100028.34;4925972;29;20055;-88
2023/03/10 03:18:43;;;;;;;4.47;3.13;;;;;;;10.89;80.10;100014.59;4922042;29;20063;-88
2023/03/10 03:21:11;;;;;;;4.45;3.13;;;;;;;10.90;80.28;100021.66;4915865;29;20516;-88
2023/03/10 03:23:43;;;;;;;6.20;3.40;;;;;;;10.92;80.27;100019.63;4930907;29;20601;-87
2023/03/10 03:26:15;;;;;;;4.45;3.17;;;;;;;10.80;80.44;100016.50;4928597;29;20039;-87
2023/03/10 03:28:44;;;;;;;5.22;3.30;;;;;;;10.98;80.56;100045.81;4946615;29;20039;-88
2023/03/10 03:31:23;;;;;;;4.72;3.30;;;;;;;10.89;80.59;100025.38;4944984;29;20187;-88
2023/03/10 03:33:51;;;;;;;5.65;3.20;;;;;;;10.90;80.38;100016.25;4906606;29;20040;-87
2023/03/10 03:36:17;;;;;;;5.28;3.70;;;;;;;11.08;80.65;100049.09;4944478;28;20040;-88
2023/03/10 03:38:44;;;;;;;5.10;3.58;;;;;;;10.86;80.91;100020.31;4939310;29;20066;-86
2023/03/10 03:41:12;;;;;;;7.45;4.00;;;;;;;11.04;80.83;100050.44;4940986;28;20035;-87
2023/03/10 03:43:40;;;;;;;5.75;3.75;;;;;;;11.10;81.07;100068.59;4946502;28;20043;-88
2023/03/10 03:46:06;;;;;;;5.72;3.50;;;;;;;10.99;81.34;100053.69;4914979;29;20072;-86
2023/03/10 03:48:33;;;;;;;6.45;4.15;;;;;;;10.85;81.38;100029.41;4918999;29;20123;-88
2023/03/10 03:50:59;;;;;;;5.75;3.88;;;;;;;10.98;81.41;100049.31;4921909;29;20050;-88
2023/03/10 03:53:26;;;;;;;6.22;4.20;;;;;;;10.95;81.38;100043.47;4930084;29;20043;-89
2023/03/10 03:55:52;;;;;;;5.57;4.05;;;;;;;11.01;81.75;100053.50;4921461;28;20047;-88
2023/03/10 03:58:17;;;;;;;5.57;4.20;;;;;;;10.97;81.26;100039.56;4927268;29;20110;-90
2023/03/10 04:00:43;;;;;;;6.20;4.28;;;;;;;10.96;81.75;100042.47;4928235;28;20127;-87
2023/03/10 04:03:10;;;;;;;6.82;4.32;;;;;;;10.98;81.56;100032.34;4931171;29;20043;-87
2023/03/10 04:05:36;;;;;;;6.93;4.35;;;;;;;10.78;82.07;100016.66;4950860;29;20138;-88
2023/03/10 04:08:01;;;;;;;6.97;4.53;;;;;;;10.88;82.12;100035.25;4924916;29;20035;-86
2023/03/10 04:10:27;;;;;;;7.88;4.82;;;;;;;10.82;82.28;100025.22;4904164;28;20051;-88
2023/03/10 04:12:53;;;;;;;6.72;4.65;;;;;;;10.90;82.39;100032.41;4938991;29;20067;-91
2023/03/10 04:15:20;;;;;;;8.90;4.90;;;;;;;10.87;82.43;100044.34;4937948;29;20117;-90
2023/03/10 04:17:47;;;;;;;6.63;5.03;;;;;;;11.02;82.67;100065.09;4935343;29;20118;-88
2023/03/10 04:20:13;;;;;;;8.02;4.90;;;;;;;11.03;82.37;100059.56;4941728;29;20039;-89
2023/03/10 04:22:40;;;;;;;7.45;5.15;;;;;;;10.95;82.69;100048.84;4930739;29;20448;-89
2023/03/10 04:25:10;;;;;;;6.88;4.75;;;;;;;11.02;82.61;100063.25;4950465;28;20058;-88
2023/03/10 04:27:36;;;;;;;7.03;5.40;;;;;;;10.94;83.30;100066.00;4924240;29;20493;-89
2023/03/10 04:30:06;;;;;;;7.65;5.30;;;;;;;10.95;83.18;100062.28;4926358;29;20040;-87
2023/03/10 04:32:32;;;;;;;8.13;5.57;;;;;;;10.95;83.51;100062.28;4922727;29;20047;-86
2023/03/10 04:34:59;;;;;;;7.35;5.28;;;;;;;10.88;83.58;100054.09;4940437;28;20153;-87
2023/03/10 04:37:26;;;;;;;7.20;5.43;;;;;;;10.82;83.62;100051.28;4962831;28;20043;-87
2023/03/10 04:39:51;;;;;;;9.18;5.43;;;;;;;10.83;83.81;100058.34;4921786;29;20055;-87
2023/03/10 04:42:22;;;;;;;8.50;5.75;;;;;;;10.76;83.54;100037.50;4915610;29;20042;-87
2023/03/10 04:44:49;;;;;;;8.15;5.32;;;;;;;10.87;83.33;100040.84;4950149;28;20125;-88
2023/03/10 04:47:17;;;;;;;10.80;5.82;;;;;;;10.99;83.35;100058.22;4919134;29;20043;-87
2023/03/10 04:49:42;;;;;;;10.38;5.80;;;;;;;11.00;83.29;100051.81;4949880;29;20114;-86
2023/03/10 04:52:08;;;;;;;8.60;5.30;;;;;;;10.90;83.01;100024.34;4941296;29;20043;-86
2023/03/10 04:54:34;;;;;;;8.05;5.47;;;;;;;10.99;83.00;100036.72;4934557;29;20040;-84
2023/03/10 04:57:00;;;;;;;7.93;5.30;;;;;;;11.05;82.49;100027.94;4939771;29;20053;-87
2023/03/10 04:59:25;;;;;;;11.73;5.32;;;;;;;10.95;82.68;100017.38;4926145;28;20966;-87
2023/03/10 05:01:54;;;;;;;9.82;5.03;;;;;;;11.08;81.92;100041.03;4937027;29;20078;-89
2023/03/10 05:04:20;;;;;;;8.57;5.03;;;;;;;11.14;81.94;100043.00;4950649;29;20051;-87
2023/03/10 05:06:50;;;;;;;8.00;5.00;;;;;;;11.18;81.38;100041.59;4918957;29;20126;-89
2023/03/10 05:09:20;;;;;;;12.40;5.68;;;;;;;11.20;81.04;100028.81;4933631;29;20534;-89
2023/03/10 05:11:46;;;;;;;7.93;5.13;;;;;;;11.27;80.49;100022.72;4933873;29;20102;-86
2023/03/10 05:14:13;;;;;;;8.68;5.03;;;;;;;11.35;79.78;100023.47;4948819;28;20130;-88
2023/03/10 05:16:43;;;;;;;12.95;4.50;;;;;;;11.50;79.35;100039.66;4908569;29;20044;-86
2023/03/10 05:19:10;;;;;;;7.15;4.10;;;;;;;11.41;78.55;100020.06;4924912;29;20054;-89
2023/03/10 05:21:36;;;;;;;11.65;4.10;;;;;;;11.50;78.13;100036.16;4917897;29;20043;-90
2023/03/10 05:24:03;;;;;;;7.28;3.80;;;;;;;11.58;77.48;100042.28;4928765;28;20043;-88
2023/03/10 05:26:30;;;;;;;9.02;4.10;;;;;;;11.77;76.83;100050.84;4933984;29;20047;-86
2023/03/10 05:28:56;;;;;;;6.28;3.72;;;;;;;11.83;76.13;100055.50;4932866;29;20116;-90
2023/03/10 05:31:25;;;;;;;;;;;;;;;12.06;76.05;100081.56;4917521;29;20097;-89
2023/03/10 05:33:55;;;;;;;9.40;3.95;;;;;;;11.93;75.56;100053.41;4917544;29;20001;-89
2023/03/10 05:36:20;;;;;;;7.95;3.47;;;;;;;12.17;75.00;100073.03;4952242;28;20047;-88
2023/03/10 05:38:47;;;;;;;4.78;3.30;;;;;;;12.16;74.70;100057.88;4947036;29;20046;-91
2023/03/10 05:41:13;;;;;;;5.25;3.20;;;;;;;12.06;74.36;100050.09;4930516;29;20130;-89
2023/03/10 05:43:39;;;;;;;9.35;3.60;;;;;;;12.35;74.26;100084.28;4915388;29;20039;-89
2023/03/10 05:46:05;;;;;;;14.48;6.40;;;;;;;12.32;74.51;100081.97;4930241;28;20512;-88
2023/03/10 05:48:33;;;;;;;16.48;6.57;;;;;;;12.23;74.08;100059.66;4953337;29;20173;-89
2023/03/10 05:51:05;;;;;;;17.38;8.38;;;;;;;12.38;73.79;100077.66;4929595;28;20165;-89
2023/03/10 05:53:31;;;;;;;29.35;16.90;;;;;;;12.33;73.87;100083.63;4928452;29;20026;-90
2023/03/10 05:55:57;;;;;;;22.95;11.77;;;;;;;12.31;73.67;100072.19;4950213;28;20469;-89
2023/03/10 05:58:23;;;;;;;;;;;;;;;12.67;73.57;100107.31;4933724;28;20055;-91
2023/03/10 06:00:50;;;;;;;16.45;9.80;;;;;;;13.19;71.34;100091.91;4933799;29;19969;-90
2023/03/10 06:03:16;;;;;;;13.20;6.22;;;;;;;15.34;63.41;100091.19;4917286;29;20075;-90
2023/03/10 06:05:44;;;;;;;8.35;5.25;;;;;;;17.04;56.98;100083.22;4919025;29;20046;-90
2023/03/10 06:08:14;;;;;;;6.38;4.35;;;;;;;18.72;51.82;100084.22;4944362;28;20052;-90
2023/03/10 06:10:46;;;;;;;7.97;4.50;;;;;;;20.23;46.73;100086.78;4937503;28;20134;-90
2023/03/10 06:13:11;;;;;;;9.23;4.30;;;;;;;21.12;44.46;100085.66;4919807;29;20526;-91
2023/03/10 06:15:37;;;;;;;8.48;4.35;;;;;;;22.28;41.22;100092.53;4949258;29;20047;-90
2023/03/10 06:18:05;;;;;;;9.77;4.30;;;;;;;23.01;40.07;100122.53;4930194;29;20043;-90
2023/03/10 06:20:32;;;;;;;7.78;4.20;;;;;;;23.22;39.07;100124.41;4924395;28;20138;-87
2023/03/10 06:22:58;;;;;;;6.72;3.65;;;;;;;23.26;38.52;100103.63;4932898;29;20130;-89
2023/03/10 06:25:27;;;;;;;7.20;3.55;;;;;;;23.42;37.93;100112.03;4917868;29;20051;-90
2023/03/10 06:27:54;;;;;;;4.72;3.13;;;;;;;23.86;37.18;100106.38;4945858;29;20047;-89
2023/03/10 06:30:19;;;;;;;7.50;3.50;;;;;;;23.19;38.40;100111.22;4903423;28;20533;-90
2023/03/10 06:32:47;;;;;;;5.40;3.45;;;;;;;21.05;42.45;100113.13;4931449;28;20066;-90
2023/03/10 06:35:16;;;;;;;11.60;4.75;;;;;;;20.52;44.01;100108.72;4933582;29;20056;-89
2023/03/10 06:37:47;;;;;;;6.68;4.05;;;;;;;20.75;44.14;100113.31;4916874;29;20544;-90
2023/03/10 06:40:14;;;;;;;10.27;4.90;;;;;;;20.52;44.44;100105.16;4931053;28;20221;-90
2023/03/10 06:42:40;;;;;;;10.82;4.20;;;;;;;21.24;43.01;100105.56;4927827;28;20772;-90
2023/03/10 06:45:12;;;;;;;10.32;6.03;;;;;;;22.25;41.41;100125.91;4914341;29;20075;-91
2023/03/10 06:47:38;;;;;;;24.42;7.93;;;;;;;21.40;41.97;100112.16;4930119;29;20055;-90
2023/03/10 06:50:11;;;;;;;15.13;7.90;;;;;;;20.80;43.74;100132.56;4923378;28;20071;-89
2023/03/10 06:52:37;;;;;;;11.63;8.30;;;;;;;20.84;43.67;100133.75;4937022;29;20134;-90
2023/03/10 06:55:07;;;;;;;17.55;9.45;;;;;;;19.80;45.46;100136.22;4936585;29;20078;-88
2023/03/10 06:57:33;;;;;;;17.95;11.60;;;;;;;20.05;45.20;100124.28;4925807;29;20062;-87
2023/03/10 06:59:59;;;;;;;15.27;9.40;;;;;;;20.98;43.21;100139.75;4919027;29;20547;-86
2023/03/10 07:02:25;;;;;;;17.70;8.75;;;;;;;21.49;42.13;100137.19;4919355;29;20138;-85
2023/03/10 07:04:57;;;;;;;13.35;8.50;;;;;;;21.95;40.71;100137.16;4926539;29;20046;-87
2023/03/10 07:07:23;;;;;;;15.02;7.60;;;;;;;22.29;40.61;100151.72;4937147;28;20051;-91
2023/03/10 07:09:49;;;;;;;11.95;7.10;;;;;;;22.42;39.74;100162.28;4935089;29;20069;-84
2023/03/10 07:12:19;;;;;;;8.27;6.13;;;;;;;22.22;40.05;100142.81;4951108;28;20086;-89
2023/03/10 07:15:00;;;;;;;12.48;6.10;;;;;;;22.48;39.84;100136.63;4926604;29;20031;-91
2023/03/10 07:17:49;;;;;;;12.65;6.20;;;;;;;22.66;39.82;100153.84;4927944;29;20035;-87
2023/03/10 07:24:35;;;;;;;9.90;5.07;;;;;;;22.55;39.83;100142.75;4939271;29;20074;-92
2023/03/10 07:30:23;;;;;;;8.00;4.82;;;;;;;22.78;38.67;100118.97;4947477;29;20078;-91
2023/03/10 07:33:24;;;;;;;9.65;4.90;;;;;;;22.65;38.75;100106.47;4911902;29;20054;-93
2023/03/10 07:35:53;;;;;;;9.63;4.70;;;;;;;22.79;38.61;100115.13;4929706;29;20500;-93
2023/03/10 07:38:24;;;;;;;9.63;5.60;;;;;;;23.03;37.89;100109.41;4953620;29;20125;-93
2023/03/10 07:40:50;;;;;;;8.93;5.05;;;;;;;22.97;38.45;100119.47;4906779;29;20137;-86
2023/03/10 07:43:15;;;;;;;12.05;5.18;;;;;;;23.13;37.76;100115.84;4933075;29;20099;-89
2023/03/10 07:45:41;;;;;;;9.38;4.70;;;;;;;22.34;39.25;100113.44;4946618;29;20046;-85
2023/03/10 07:48:10;;;;;;;14.18;5.97;;;;;;;22.43;39.62;100100.13;4955748;29;20050;-89
2023/03/10 07:50:38;;;;;;;10.60;4.90;;;;;;;22.28;39.64;100114.44;4953131;29;20071;-88
2023/03/10 07:53:09;;;;;;;9.70;4.10;;;;;;;22.25;39.79;100104.00;4926255;29;20047;-93
2023/03/10 07:55:37;;;;;;;10.18;4.50;;;;;;;22.57;39.13;100106.06;4955971;28;20047;-88
2023/03/10 07:58:06;;;;;;;8.63;5.13;;;;;;;23.52;38.21;100123.91;4927415;28;20051;-91
2023/03/10 08:00:31;;;;;;;6.68;4.05;;;;;;;23.74;37.10;100117.53;4935845;29;20130;-86
2023/03/10 08:02:58;;;;;;;9.27;5.28;;;;;;;24.69;36.05;100138.81;4929342;29;20075;-87
2023/03/10 08:05:26;;;;;;;14.75;5.28;;;;;;;26.01;33.59;100118.25;4930770;29;20058;-89
2023/03/10 08:07:54;;;;;;;9.60;4.88;;;;;;;26.39;32.18;100132.53;4934105;29;20419;-87
2023/03/10 08:10:20;;;;;;;11.90;4.85;;;;;;;28.04;30.11;100133.34;4917793;29;20071;-89
2023/03/10 08:12:48;;;;;;;11.18;4.60;;;;;;;28.81;28.95;100134.22;4910999;29;20472;-88
2023/03/10 08:15:14;;;;;;;10.80;4.60;;;;;;;28.52;28.74;100114.94;4940216;29;20101;-90
2023/03/10 08:17:42;;;;;;;8.02;4.22;;;;;;;29.39;27.61;100119.34;4931812;29;20139;-89
2023/03/10 08:20:09;;;;;;;8.10;4.78;;;;;;;30.03;26.46;100118.91;4925413;29;20063;-88
2023/03/10 08:22:35;;;;;;;7.63;4.70;;;;;;;30.76;25.52;100142.22;4931344;29;20050;-89
2023/03/10 08:25:01;;;;;;;9.13;5.35;;;;;;;31.47;24.33;100105.75;4919343;29;20055;-88
2023/03/10 08:27:30;;;;;;;11.52;4.40;;;;;;;32.17;23.50;100124.56;4950441;29;20218;-89
2023/03/10 08:29:58;;;;;;;8.90;4.72;;;;;;;32.12;23.43;100109.97;4920965;29;20114;-89
2023/03/10 08:32:30;;;;;;;14.80;5.78;;;;;;;32.16;23.18;100111.78;4924102;29;20047;-88
2023/03/10 08:34:56;;;;;;;7.45;5.07;;;;;;;33.05;22.54;100124.94;4956864;29;20237;-90
2023/03/10 08:37:22;;;;;;;10.40;5.25;;;;;;;33.24;22.10;100100.38;4932922;29;20059;-91
2023/03/10 08:39:50;;;;;;;11.68;5.05;;;;;;;33.85;21.25;100126.28;4918795;29;20047;-89
2023/03/10 08:42:16;;;;;;;8.32;5.03;;;;;;;34.16;20.72;100100.16;4935449;29;20538;-89
2023/03/10 08:44:41;;;;;;;11.00;5.43;;;;;;;34.64;20.70;100090.63;4955894;29;20249;-89
2023/03/10 08:47:17;;;;;;;9.80;4.60;;;;;;;35.88;19.11;100100.56;4937580;29;20032;-89
2023/03/10 08:49:48;;;;;;;8.13;4.43;;;;;;;36.46;18.53;100095.78;4940010;29;20044;-89
2023/03/10 08:52:16;;;;;;;10.52;3.90;;;;;;;36.81;17.77;100097.28;4920136;29;20047;-88
2023/03/10 08:54:53;;;;;;;7.05;4.95;;;;;;;35.67;18.47;100111.78;4941414;29;20729;-87
2023/03/10 08:57:19;;;;;;;5.07;2.80;;;;;;;34.70;19.20;100104.38;4937635;29;20039;-89
2023/03/10 08:59:45;;;;;;;4.45;3.00;;;;;;;34.81;19.37;100097.25;4921950;29;20102;-87
2023/03/10 09:02:13;;;;;;;8.75;3.33;;;;;;;35.77;18.29;100085.38;4952389;29;20401;-88
2023/03/10 09:04:41;;;;;;;11.27;3.95;;;;;;;36.73;17.96;100096.25;4937289;29;20039;-89
2023/03/10 09:07:47;;;;;;;7.90;2.90;;;;;;;35.91;18.15;100103.47;4952872;29;20043;-88
2023/03/10 09:10:22;;;;;;;7.30;3.20;;;;;;;37.08;17.31;100079.78;4885993;29;20089;-86
2023/03/10 09:12:48;;;;;;;13.75;4.00;;;;;;;37.62;16.57;100081.34;4874232;29;20048;-86
2023/03/10 09:15:13;;;;;;;9.00;3.50;;;;;;;37.51;16.57;100075.44;4879800;29;20045;-87
2023/03/10 09:17:39;;;;;;;5.78;3.33;;;;;;;37.22;16.52;100092.59;4897618;29;20534;-86
2023/03/10 09:20:05;;;;;;;5.03;3.13;;;;;;;38.25;15.68;100099.50;4868225;29;20045;-87
2023/03/10 09:22:49;;;;;;;5.88;3.33;;;;;;;37.67;15.77;100074.69;4880434;29;20520;-84
2023/03/10 09:25:15;;;;;;;5.30;3.55;;;;;;;37.11;16.35;100084.69;4897465;29;20112;-86
2023/03/10 09:27:47;;;;;;;4.97;3.33;;;;;;;37.18;16.63;100092.47;4865032;29;20040;-84
2023/03/10 09:30:16;;;;;;;7.50;3.50;;;;;;;38.15;16.04;100095.25;4869063;29;20061;-85
2023/03/10 09:32:46;;;;;;;9.57;3.50;;;;;;;38.63;15.49;100065.16;4900478;29;20109;-87
2023/03/10 09:35:18;;;;;;;7.80;3.10;;;;;;;39.53;14.29;100067.97;4898587;29;20108;-86
2023/03/10 09:37:45;;;;;;;10.07;3.10;;;;;;;39.46;13.72;100073.47;4868488;29;20091;-85
2023/03/10 09:40:19;;;;;;;8.40;3.95;;;;;;;39.79;13.90;100069.25;4912663;29;20128;-85
2023/03/10 09:42:59;;;;;;;17.67;3.40;;;;;;;39.08;14.40;100068.59;4952136;29;20039;-84
2023/03/10 09:45:49;;;;;;;5.75;3.33;;;;;;;38.90;14.63;100082.25;4943796;29;20150;-86
2023/03/10 09:49:00;;;;;;;7.25;3.00;;;;;;;38.56;14.80;100068.59;4943899;29;20071;-85
2023/03/10 09:51:29;;;;;;;10.20;3.30;;;;;;;38.18;15.18;100066.44;4935553;29;20412;-87
2023/03/10 09:54:28;;;;;;;6.10;2.90;;;;;;;37.43;15.62;100058.75;4931997;29;20043;-86
2023/03/10 09:56:56;;;;;;;3.55;2.05;;;;;;;37.06;15.15;100051.28;4923715;29;20043;-88
2023/03/10 09:59:42;;;;;;;5.38;1.90;;;;;;;38.05;14.83;100046.09;4920494;29;20166;-87
2023/03/10 10:02:35;;;;;;;2.60;1.60;;;;;;;34.72;17.68;100074.16;4920649;29;20031;-87
2023/03/10 10:05:07;;;;;;;3.83;2.10;;;;;;;34.64;18.76;100056.31;4953888;29;20488;-85
2023/03/10 10:07:52;;;;;;;6.53;2.17;;;;;;;34.98;18.48;100049.69;4921468;29;20051;-86
2023/03/10 10:10:27;;;;;;;3.92;2.03;;;;;;;31.69;21.16;100047.41;4922587;29;20118;-86
2023/03/10 10:12:53;;;;;;;4.25;1.75;;;;;;;31.14;22.33;100069.84;4918542;29;20057;-86
2023/03/10 10:15:25;;;;;;;3.53;1.70;;;;;;;30.37;23.56;100068.69;4935674;29;20055;-86
2023/03/10 10:18:38;;;;;;;5.38;2.10;;;;;;;29.05;25.31;100064.16;4935120;29;20043;-86
2023/03/10 10:24:26;;;;;;;2.40;1.60;;;;;;;26.97;28.14;100052.91;4935624;29;20495;-87
2023/03/10 10:26:55;;;;;;;2.55;1.85;;;;;;;27.57;27.33;100053.63;4915345;29;20040;-87
2023/03/10 10:29:24;;;;;;;3.42;1.85;;;;;;;27.73;27.08;100043.28;4920559;29;20058;-86
2023/03/10 10:32:13;;;;;;;3.42;1.83;;;;;;;27.75;27.35;100045.75;4903733;29;20417;-86
2023/03/10 10:34:48;;;;;;;3.22;1.85;;;;;;;27.61;27.01;100042.03;4953879;29;20114;-85
2023/03/10 10:37:31;;;;;;;4.90;1.83;;;;;;;27.13;28.33;100045.38;4936772;29;20047;-85
2023/03/10 10:39:59;;;;;;;5.45;2.10;;;;;;;28.52;26.22;100045.00;4951621;28;20035;-86
2023/03/10 10:42:26;;;;;;;8.70;2.10;;;;;;;29.23;25.34;100046.78;4929397;29;20094;-87
2023/03/10 10:44:58;;;;;;;5.30;1.98;;;;;;;29.30;24.84;100040.06;4953085;29;20058;-87
2023/03/10 10:47:26;;;;;;;3.35;1.85;;;;;;;27.82;26.60;100029.66;4919729;29;20110;-88
2023/03/10 10:49:54;;;;;;;2.75;1.80;;;;;;;26.11;28.76;100027.34;4924865;29;20074;-85
2023/03/10 10:52:24;;;;;;;3.38;2.00;;;;;;;26.38;28.49;100026.97;4918942;29;20040;-87
2023/03/10 10:55:42;;;;;;;5.70;2.45;;;;;;;29.02;25.10;100012.22;4936577;29;20127;-85
2023/03/10 10:58:36;;;;;;;7.07;1.90;;;;;;;29.50;24.27;100016.72;4929899;29;20039;-86
2023/03/10 11:01:39;;;;;;;3.85;2.00;;;;;;;29.80;24.00;99993.22;4951750;28;20043;-85
2023/03/10 11:04:42;;;;;;;5.15;1.88;;;;;;;30.53;23.36;99976.81;4917694;29;20576;-84
2023/03/10 11:07:10;;;;;;;3.55;2.10;;;;;;;29.13;24.29;99986.06;4930909;29;20131;-87
2023/03/10 11:09:37;;;;;;;6.57;2.20;;;;;;;26.78;27.53;100008.63;4917671;29;20055;-87
2023/03/10 11:12:24;;;;;;;3.08;1.83;;;;;;;26.81;27.82;99999.78;4895506;29;20069;-87
2023/03/10 11:15:12;;;;;;;4.35;1.70;;;;;;;26.40;28.19;99997.22;4924735;29;20120;-89
2023/03/10 11:18:26;;;;;;;4.03;1.83;;;;;;;26.70;28.34;99974.22;4951974;28;20043;-86
2023/03/10 11:21:10;;;;;;;3.92;2.00;;;;;;;24.75;30.94;99975.59;4934230;29;20036;-85
2023/03/10 11:24:25;;;;;;;5.38;2.10;;;;;;;24.17;32.26;99964.66;4953010;29;20047;-86
2023/03/10 11:27:13;;;;;;;4.57;2.10;;;;;;;23.76;32.82;99959.78;4935194;29;20139;-87
2023/03/10 11:30:09;;;;;;;8.20;2.40;;;;;;;23.86;32.70;99967.25;4938370;29;20067;-83
2023/03/10 11:39:35;;;;;;;4.75;2.60;;;;;;;26.19;28.85;99962.59;4949785;29;20156;-92
2023/03/10 11:43:00;;;;;;;5.07;2.60;;;;;;;26.87;28.24;99964.72;4943519;29;20036;-89
2023/03/10 11:46:23;;;;;;;6.20;2.92;;;;;;;27.05;27.97;99960.47;4955223;28;20051;-94
2023/03/10 11:55:46;;;;;;;6.22;2.33;;;;;;;23.82;32.59;99937.84;4957725;28;20497;-91
2023/03/10 12:02:14;;;;;;;5.22;2.60;;;;;;;23.99;32.49;99927.50;4956551;29;20394;-91
2023/03/10 12:19:09;;;;;;;5.30;2.88;;;;;;;21.26;37.54;99931.19;4899609;29;20067;-91
2023/03/10 12:25:31;;;;;;;5.03;2.80;;;;;;;18.58;43.69;99919.41;4897804;29;20135;-91
2023/03/10 12:31:46;;;;;;;6.47;3.60;;;;;;;18.28;45.23;99903.88;4895415;29;20086;-90
2023/03/10 12:34:52;;;;;;;5.93;3.50;;;;;;;18.28;45.15;99890.28;4807216;29;20121;-92
2023/03/10 12:40:51;;;;;;;8.80;3.70;;;;;;;18.21;45.58;99892.28;4835938;29;20061;-90